Time;durP1;ratioP1;P1;durP2;ratioP2;P2;SDS_P1;SDS_P2;PMS_P1;PMS_P2;Temp;Humidity;BMP_temperature;BMP_pressure;BME280_temperature;BME280_humidity;BME280_pressure;Samples;Min_cycle;Max_cycle;Signal;HPM_P1;HPM_P2
2022/04/03 00:42:59;;;;;;;15.75;9.75;;;1.70;99.90;;;;;;4930938;29;20048;-93
2022/04/03 00:45:26;;;;;;;15.00;9.45;;;1.80;99.90;;;;;;4950559;28;20020;-90
2022/04/03 00:47:54;;;;;;;17.67;9.95;;;1.80;99.90;;;;;;4927968;28;20158;-90
2022/04/03 00:50:26;;;;;;;16.25;10.15;;;1.80;99.90;;;;;;4928117;28;20099;-89
2022/04/03 00:52:52;;;;;;;16.45;9.13;;;1.70;99.90;;;;;;4931659;28;20021;-90
2022/04/03 00:58:31;;;;;;;14.70;9.52;;;1.60;99.90;;;;;;4932638;28;20028;-90
2022/04/03 01:01:13;;;;;;;18.55;10.48;;;1.60;99.90;;;;;;4928374;29;20064;-91
2022/04/03 01:03:39;;;;;;;16.73;9.00;;;1.60;99.90;;;;;;4918953;29;20032;-91
2022/04/03 01:06:24;;;;;;;14.68;9.93;;;1.60;99.90;;;;;;4928061;29;20051;-91
2022/04/03 01:08:54;;;;;;;18.55;9.70;;;1.50;99.90;;;;;;4924716;29;20032;-91
2022/04/03 01:11:23;;;;;;;14.77;9.13;;;1.50;99.90;;;;;;4923202;29;20028;-92
2022/04/03 01:13:54;;;;;;;15.95;9.55;;;1.50;99.90;;;;;;4928026;29;20040;-91
2022/04/03 01:16:28;;;;;;;18.10;10.07;;;1.50;99.90;;;;;;4927419;29;20064;-91
2022/04/03 01:18:58;;;;;;;15.70;9.98;;;1.40;99.90;;;;;;4927403;29;20025;-92
2022/04/03 01:21:24;;;;;;;12.27;8.98;;;1.50;99.90;;;;;;4928385;29;20530;-90
2022/04/03 01:23:50;;;;;;;14.43;9.13;;;1.40;99.90;;;;;;4920207;29;20028;-91
2022/04/03 01:26:16;;;;;;;19.80;9.60;;;1.30;99.90;;;;;;4919568;29;20338;-90
2022/04/03 01:28:43;;;;;;;16.40;9.40;;;1.20;99.90;;;;;;4924383;29;20127;-90
2022/04/03 01:31:08;;;;;;;23.02;9.65;;;1.30;99.90;;;;;;4922333;29;20032;-91
2022/04/03 01:33:34;;;;;;;18.15;9.52;;;1.20;99.90;;;;;;4925642;29;20123;-90
2022/04/03 01:35:59;;;;;;;16.70;9.88;;;1.20;99.90;;;;;;4973993;23;20051;-86
2022/04/03 01:38:25;;;;;;;14.23;9.07;;;1.10;99.90;;;;;;4949527;29;20031;-86
2022/04/03 01:40:51;;;;;;;18.58;10.13;;;1.10;99.90;;;;;;4955123;29;20031;-86
2022/04/03 01:43:17;;;;;;;16.63;9.18;;;1.10;99.90;;;;;;4947504;29;20051;-86
2022/04/03 01:45:42;;;;;;;14.50;9.07;;;1.10;99.90;;;;;;4954028;29;20062;-87
2022/04/03 01:48:09;;;;;;;15.52;9.25;;;1.10;99.90;;;;;;4949964;29;20034;-86
2022/04/03 01:50:35;;;;;;;13.30;8.73;;;1.10;99.90;;;;;;4949458;29;20051;-86
2022/04/03 01:53:00;;;;;;;17.98;9.15;;;1.10;99.90;;;;;;4960073;29;20099;-85
2022/04/03 01:55:26;;;;;;;14.68;9.20;;;1.10;99.90;;;;;;4968950;29;20038;-86
2022/04/03 01:57:52;;;;;;;15.38;9.07;;;1.10;99.90;;;;;;4968299;29;20205;-86
2022/04/03 02:00:19;;;;;;;12.90;9.05;;;1.10;99.90;;;;;;4968562;28;20027;-85
2022/04/03 02:02:45;;;;;;;15.77;9.25;;;1.10;99.90;;;;;;4967551;29;20393;-86
2022/04/03 02:05:11;;;;;;;14.70;8.48;;;1.20;99.90;;;;;;4963790;28;20050;-86
2022/04/03 02:07:38;;;;;;;13.43;8.73;;;1.10;99.90;;;;;;4951820;29;20113;-86
2022/04/03 02:10:09;;;;;;;13.70;7.90;;;1.10;99.90;;;;;;4955674;29;20086;-86
2022/04/03 02:12:43;;;;;;;15.73;7.80;;;1.20;99.90;;;;;;4956460;29;20118;-86
2022/04/03 02:15:11;;;;;;;14.30;8.35;;;1.20;99.90;;;;;;4952059;29;20034;-86
2022/04/03 02:17:37;;;;;;;12.98;8.05;;;1.20;99.90;;;;;;4956632;28;20114;-86
2022/04/03 02:20:05;;;;;;;11.82;7.53;;;1.10;99.90;;;;;;4955781;29;20045;-86
2022/04/03 02:22:34;;;;;;;9.48;7.03;;;1.20;99.90;;;;;;4955076;29;20046;-86
2022/04/03 02:25:00;;;;;;;11.40;7.38;;;1.10;99.90;;;;;;4956295;29;20058;-86
2022/04/03 02:27:25;;;;;;;12.98;8.15;;;1.20;99.90;;;;;;4944152;29;20039;-86
2022/04/03 02:29:51;;;;;;;13.13;7.88;;;1.10;99.90;;;;;;4959664;29;20023;-86
2022/04/03 02:32:16;;;;;;;11.63;7.78;;;1.10;99.90;;;;;;4959509;29;20113;-86
2022/04/03 02:34:42;;;;;;;15.50;8.18;;;1.10;99.90;;;;;;4956621;28;20486;-86
2022/04/03 02:37:08;;;;;;;14.35;8.10;;;1.10;99.90;;;;;;4955977;28;20073;-86
2022/04/03 02:39:33;;;;;;;12.20;7.43;;;1.10;99.90;;;;;;4955609;29;20098;-84
2022/04/03 02:41:59;;;;;;;12.00;7.45;;;1.10;99.90;;;;;;4956884;29;20401;-86
2022/04/03 02:44:24;;;;;;;14.57;7.88;;;1.10;99.90;;;;;;4970073;28;20028;-86
2022/04/03 02:46:50;;;;;;;13.63;7.97;;;1.20;99.90;;;;;;4956242;29;20161;-86
2022/04/03 02:49:15;;;;;;;9.30;7.10;;;1.20;99.90;;;;;;4954671;29;20069;-86
2022/04/03 02:51:41;;;;;;;10.68;7.28;;;1.20;99.90;;;;;;4956220;29;20024;-86
2022/04/03 02:54:06;;;;;;;13.13;8.32;;;1.20;99.90;;;;;;4953771;29;20031;-84
2022/04/03 02:56:32;;;;;;;11.93;7.90;;;1.20;99.90;;;;;;4953867;28;20027;-87
2022/04/03 02:58:57;;;;;;;12.30;8.02;;;1.20;99.90;;;;;;4952173;29;20046;-87
2022/04/03 03:01:23;;;;;;;14.52;7.82;;;1.20;99.90;;;;;;4950362;29;20593;-86
2022/04/03 03:03:50;;;;;;;11.65;7.88;;;1.20;99.90;;;;;;4948769;29;20042;-86
2022/04/03 03:06:16;;;;;;;12.15;7.78;;;1.20;99.90;;;;;;4945681;29;20035;-84
2022/04/03 03:08:42;;;;;;;13.20;8.00;;;1.20;99.90;;;;;;4946624;29;20023;-84
2022/04/03 03:11:07;;;;;;;11.40;7.07;;;1.20;99.90;;;;;;4948203;28;20042;-87
2022/04/03 03:13:34;;;;;;;12.50;8.07;;;1.10;99.90;;;;;;4950207;29;20031;-87
2022/04/03 03:15:59;;;;;;;12.50;7.68;;;1.10;99.90;;;;;;4950109;29;20038;-86
2022/04/03 03:18:25;;;;;;;13.07;7.70;;;1.10;99.90;;;;;;4958825;29;20059;-87
2022/04/03 03:20:51;;;;;;;10.65;7.78;;;1.10;99.90;;;;;;4959850;28;20023;-87
2022/04/03 03:23:17;;;;;;;12.30;8.63;;;1.00;99.90;;;;;;4955749;28;20032;-87
2022/04/03 03:25:43;;;;;;;13.52;7.90;;;1.00;99.90;;;;;;4951943;28;20019;-86
2022/04/03 03:28:09;;;;;;;12.93;7.80;;;1.00;99.90;;;;;;4957364;29;20532;-87
2022/04/03 03:30:34;;;;;;;15.38;7.85;;;0.90;99.90;;;;;;4956746;29;20031;-86
2022/04/03 03:33:00;;;;;;;9.88;7.50;;;0.90;99.90;;;;;;4957407;29;20637;-87
2022/04/03 03:35:26;;;;;;;12.85;7.35;;;0.90;99.90;;;;;;4954683;29;20028;-87
2022/04/03 03:37:51;;;;;;;11.55;7.45;;;0.90;99.90;;;;;;4953467;28;20477;-86
2022/04/03 03:40:17;;;;;;;11.60;6.85;;;1.00;99.90;;;;;;4956148;29;20031;-87
2022/04/03 03:42:43;;;;;;;13.77;7.32;;;1.00;99.90;;;;;;4957113;28;20106;-87
2022/04/03 03:45:11;;;;;;;10.48;7.38;;;1.00;99.90;;;;;;4958228;29;20034;-86
2022/04/03 03:47:36;;;;;;;9.60;6.70;;;1.00;99.90;;;;;;4959776;28;20028;-87
2022/04/03 03:50:02;;;;;;;10.63;6.70;;;1.00;99.90;;;;;;4957361;29;20501;-87
2022/04/03 03:52:28;;;;;;;9.00;6.70;;;1.10;99.90;;;;;;4959043;28;20090;-87
2022/04/03 03:54:54;;;;;;;13.57;7.07;;;1.10;99.90;;;;;;4951596;29;20027;-87
2022/04/03 03:57:19;;;;;;;10.82;6.72;;;1.10;99.90;;;;;;4958918;28;20073;-87
2022/04/03 03:59:45;;;;;;;12.43;7.05;;;1.20;99.90;;;;;;4958150;29;20027;-86
2022/04/03 04:02:11;;;;;;;10.05;6.95;;;1.10;99.90;;;;;;4956689;29;20039;-87
2022/04/03 04:04:36;;;;;;;9.43;6.53;;;1.10;99.90;;;;;;4955323;29;20023;-87
2022/04/03 04:07:02;;;;;;;11.80;7.05;;;1.20;99.90;;;;;;4951508;29;20027;-87
2022/04/03 04:09:27;;;;;;;12.02;6.82;;;1.20;99.90;;;;;;4957168;29;20028;-87
2022/04/03 04:11:53;;;;;;;12.02;6.63;;;1.20;99.90;;;;;;4939491;29;20032;-87
2022/04/03 04:14:19;;;;;;;9.98;6.07;;;1.20;99.90;;;;;;4948349;29;20027;-85
2022/04/03 04:16:46;;;;;;;8.25;5.82;;;1.20;99.90;;;;;;4948764;29;20378;-84
2022/04/03 04:19:13;;;;;;;10.38;6.30;;;1.20;99.90;;;;;;4954556;29;20028;-84
2022/04/03 04:21:38;;;;;;;10.30;6.30;;;1.20;99.90;;;;;;4958916;28;20433;-87
2022/04/03 04:24:04;;;;;;;8.45;6.10;;;1.20;99.90;;;;;;4958819;29;20031;-87
2022/04/03 04:26:30;;;;;;;10.15;6.40;;;1.20;99.90;;;;;;4954769;29;20460;-87
2022/04/03 04:28:55;;;;;;;13.98;6.28;;;1.10;99.90;;;;;;4960744;29;20122;-87
2022/04/03 04:31:21;;;;;;;9.38;6.28;;;1.10;99.90;;;;;;4958196;29;20094;-87
2022/04/03 04:33:46;;;;;;;12.77;6.55;;;1.10;99.90;;;;;;4958380;29;20027;-87
2022/04/03 04:36:12;;;;;;;10.43;5.68;;;1.10;99.90;;;;;;4956124;28;20078;-87
2022/04/03 04:38:38;;;;;;;7.68;5.82;;;1.10;99.90;;;;;;4943123;29;20031;-86
2022/04/03 04:41:04;;;;;;;14.40;6.70;;;1.10;99.90;;;;;;4951435;29;20043;-87
2022/04/03 04:43:30;;;;;;;11.77;6.30;;;1.10;99.90;;;;;;4957042;28;20031;-87
2022/04/03 04:45:56;;;;;;;10.25;6.47;;;1.10;99.90;;;;;;4949446;29;20027;-87
2022/04/03 04:48:21;;;;;;;10.13;6.63;;;1.00;99.90;;;;;;4958302;28;20110;-87
2022/04/03 04:50:47;;;;;;;11.40;6.47;;;1.00;99.90;;;;;;4954862;29;20046;-86
2022/04/03 04:53:12;;;;;;;9.82;6.45;;;1.00;99.90;;;;;;4956357;29;20573;-86
2022/04/03 04:55:38;;;;;;;10.05;6.53;;;1.00;99.90;;;;;;4956355;29;20027;-86
2022/04/03 04:58:03;;;;;;;10.55;6.72;;;0.90;99.90;;;;;;4951968;29;20035;-87
2022/04/03 05:00:30;;;;;;;7.97;6.05;;;0.90;99.90;;;;;;4953196;29;20094;-86
2022/04/03 05:02:57;;;;;;;10.30;6.75;;;0.90;99.90;;;;;;4956002;28;20035;-86
2022/04/03 05:05:24;;;;;;;11.65;7.15;;;0.80;99.90;;;;;;4958018;28;20073;-87
2022/04/03 05:07:53;;;;;;;10.57;6.88;;;0.80;99.90;;;;;;4956009;28;20029;-85
2022/04/03 05:10:20;;;;;;;13.82;9.07;;;0.80;99.90;;;;;;4942949;29;20115;-84
2022/04/03 05:12:46;;;;;;;14.85;8.65;;;0.80;99.90;;;;;;4958914;28;20019;-85
2022/04/03 05:15:12;;;;;;;14.23;9.60;;;0.70;99.90;;;;;;4949859;29;20023;-85
2022/04/03 05:17:40;;;;;;;12.95;9.77;;;0.70;99.90;;;;;;4959012;28;20389;-84
2022/04/03 05:20:07;;;;;;;17.48;11.07;;;0.70;99.90;;;;;;4961061;29;20552;-85
2022/04/03 05:22:33;;;;;;;13.10;9.70;;;0.70;99.90;;;;;;4960294;29;20089;-85
2022/04/03 05:25:01;;;;;;;15.38;10.43;;;0.70;99.90;;;;;;4959966;29;20027;-84
2022/04/03 05:27:27;;;;;;;13.40;9.45;;;0.70;99.90;;;;;;4957793;28;20042;-87
2022/04/03 05:29:54;;;;;;;13.07;9.38;;;0.70;99.90;;;;;;4952204;29;20024;-86
2022/04/03 05:32:28;;;;;;;12.30;8.35;;;0.70;99.90;;;;;;4946183;29;20147;-86
2022/04/03 05:34:54;;;;;;;14.65;8.98;;;0.70;99.90;;;;;;4956147;28;20029;-86
2022/04/03 05:37:20;;;;;;;13.05;7.85;;;0.70;99.90;;;;;;4947601;28;20028;-86
2022/04/03 05:39:45;;;;;;;11.48;8.05;;;0.70;99.90;;;;;;4954884;29;20106;-86
2022/04/03 05:42:11;;;;;;;13.25;8.38;;;0.70;99.90;;;;;;4958399;29;20031;-86
2022/04/03 05:44:37;;;;;;;11.35;7.72;;;0.80;99.90;;;;;;4952777;29;20050;-86
2022/04/03 05:47:03;;;;;;;10.98;8.07;;;0.80;99.90;;;;;;4947593;29;20077;-86
2022/04/03 05:49:29;;;;;;;11.02;7.10;;;0.80;99.90;;;;;;4957032;29;20016;-86
2022/04/03 05:51:54;;;;;;;9.13;6.90;;;0.90;99.90;;;;;;4957220;29;20043;-86
2022/04/03 05:54:20;;;;;;;13.57;7.25;;;1.00;99.90;;;;;;4957730;29;20020;-86
2022/04/03 05:56:46;;;;;;;10.07;7.22;;;1.00;99.90;;;;;;4951580;29;20034;-86
2022/04/03 05:59:12;;;;;;;10.45;6.35;;;1.10;99.90;;;;;;4942503;29;20037;-86
2022/04/03 06:01:38;;;;;;;9.40;6.35;;;1.20;99.90;;;;;;4956810;29;20030;-86
2022/04/03 06:04:04;;;;;;;10.20;6.93;;;1.20;99.90;;;;;;4958110;29;20042;-86
2022/04/03 06:06:29;;;;;;;11.43;7.10;;;1.30;99.90;;;;;;4955662;29;20031;-85
2022/04/03 06:08:55;;;;;;;11.18;7.13;;;1.40;99.90;;;;;;4956410;29;20485;-86
2022/04/03 06:11:20;;;;;;;13.73;6.20;;;1.40;99.90;;;;;;4958242;29;20042;-87
2022/04/03 06:14:01;;;;;;;12.27;6.05;;;1.50;99.90;;;;;;4956231;29;20030;-87
2022/04/03 06:16:29;;;;;;;8.35;5.82;;;1.60;99.90;;;;;;4947037;28;20051;-86
2022/04/03 06:18:55;;;;;;;7.60;5.95;;;1.60;99.90;;;;;;4953282;29;20023;-86
2022/04/03 06:21:21;;;;;;;8.77;5.63;;;1.70;99.90;;;;;;4958656;29;20096;-86
2022/04/03 06:23:46;;;;;;;10.88;5.75;;;1.70;99.90;;;;;;4959531;29;20035;-86
2022/04/03 06:26:12;;;;;;;8.02;6.00;;;1.80;99.90;;;;;;4960576;28;20032;-84
2022/04/03 06:28:37;;;;;;;11.93;6.00;;;1.80;99.90;;;;;;4959175;29;20091;-86
2022/04/03 06:31:04;;;;;;;9.98;6.32;;;1.80;99.90;;;;;;4957493;29;20035;-85
2022/04/03 06:33:32;;;;;;;10.48;6.47;;;1.90;99.90;;;;;;4958239;29;20031;-86
2022/04/03 06:35:58;;;;;;;8.57;6.43;;;2.00;99.90;;;;;;4957336;28;20094;-85
2022/04/03 06:38:23;;;;;;;9.50;6.15;;;2.00;99.90;;;;;;4958045;29;20079;-86
2022/04/03 06:40:51;;;;;;;8.35;6.07;;;2.10;99.90;;;;;;4954115;28;20019;-86
2022/04/03 06:43:19;;;;;;;7.80;5.03;;;2.20;99.90;;;;;;4957900;29;20091;-86
2022/04/03 06:45:44;;;;;;;8.38;5.00;;;2.20;99.90;;;;;;4947728;29;20031;-86
2022/04/03 06:48:12;;;;;;;6.75;4.45;;;2.20;99.90;;;;;;4953734;29;20397;-85
2022/04/03 06:50:38;;;;;;;6.93;4.60;;;2.20;99.90;;;;;;4961991;29;20114;-85
2022/04/03 06:53:04;;;;;;;6.20;4.80;;;2.30;99.90;;;;;;4957981;29;20059;-86
2022/04/03 06:55:30;;;;;;;8.35;5.07;;;2.30;99.90;;;;;;4961089;28;20026;-85
2022/04/03 06:57:56;;;;;;;6.20;4.45;;;2.50;99.90;;;;;;4959581;28;20131;-85
2022/04/03 07:00:22;;;;;;;6.70;4.70;;;2.60;99.90;;;;;;4961507;29;20631;-86
2022/04/03 07:02:49;;;;;;;7.22;4.55;;;2.60;99.90;;;;;;4960028;29;20110;-85
2022/04/03 07:05:15;;;;;;;10.05;5.10;;;2.70;99.90;;;;;;4960501;28;20031;-85
2022/04/03 07:07:40;;;;;;;6.18;4.35;;;3.00;99.90;;;;;;4954864;29;20043;-85
2022/04/03 07:10:07;;;;;;;6.50;4.25;;;3.20;99.90;;;;;;4959498;29;20509;-85
2022/04/03 07:12:36;;;;;;;6.72;4.90;;;3.30;99.90;;;;;;4951426;29;20028;-86
2022/04/03 07:15:04;;;;;;;7.93;5.43;;;3.60;99.90;;;;;;4961365;29;20024;-85
2022/04/03 07:17:30;;;;;;;6.38;4.65;;;3.70;99.90;;;;;;4953155;29;20023;-86
2022/04/03 07:19:58;;;;;;;4.90;4.30;;;4.00;99.90;;;;;;4952973;29;20058;-85
2022/04/03 07:22:24;;;;;;;5.57;3.92;;;4.20;99.90;;;;;;4961004;29;20519;-85
2022/04/03 07:24:52;;;;;;;5.50;4.35;;;4.50;99.90;;;;;;4960563;28;20090;-86
2022/04/03 07:27:17;;;;;;;5.32;4.15;;;4.70;99.90;;;;;;4953910;29;20032;-86
2022/04/03 07:29:43;;;;;;;6.30;4.72;;;4.90;99.90;;;;;;4963122;29;20029;-86
2022/04/03 07:38:09;;;;;;;5.00;4.13;;;5.80;99.90;;;;;;5287149;23;20051;-92
2022/04/03 07:40:35;;;;;;;4.45;3.83;;;6.10;99.90;;;;;;4971788;29;20109;-92
2022/04/03 08:03:50;;;;;;;4.75;3.50;;;6.40;99.90;;;;;;4929649;27;20063;-93
2022/04/03 08:06:16;;;;;;;3.72;3.15;;;6.30;99.90;;;;;;4942681;28;20051;-94
2022/04/03 08:08:42;;;;;;;4.22;3.20;;;6.40;99.90;;;;;;4924549;28;20032;-94
2022/04/03 08:11:17;;;;;;;5.72;3.40;;;6.80;99.90;;;;;;4928936;28;20193;-94
2022/04/03 08:14:01;;;;;;;3.85;3.03;;;7.20;99.90;;;;;;4937891;28;20039;-94
2022/04/03 08:16:31;;;;;;;5.80;2.90;;;7.90;99.90;;;;;;4939218;28;20071;-94
2022/04/03 08:18:57;;;;;;;3.00;2.67;;;9.00;99.90;;;;;;4931661;28;20040;-93
2022/04/03 08:21:39;;;;;;;2.85;2.65;;;10.10;99.90;;;;;;4932323;28;20016;-93
2022/04/03 10:23:11;;;;;;;2.95;2.10;;;10.90;99.90;;;;;;4913232;29;20063;-89
2022/04/03 10:25:44;;;;;;;3.92;2.20;;;10.70;99.90;;;;;;4915111;29;20023;-86
2022/04/03 10:28:11;;;;;;;3.30;2.20;;;10.60;99.90;;;;;;4921759;29;20037;-88
2022/04/03 10:30:43;;;;;;;2.20;2.00;;;10.50;99.90;;;;;;4915811;29;20024;-87
2022/04/03 10:33:20;;;;;;;1.67;1.58;;;10.40;99.90;;;;;;4905002;29;20518;-88
2022/04/03 10:35:48;;;;;;;2.85;1.80;;;10.40;99.90;;;;;;4917877;29;20046;-88
2022/04/03 10:38:13;;;;;;;2.30;1.80;;;10.40;99.90;;;;;;4905088;29;20031;-89
2022/04/03 10:40:39;;;;;;;1.98;1.70;;;10.40;99.90;;;;;;4915272;29;20032;-90
2022/04/03 10:43:07;;;;;;;3.38;1.92;;;10.40;99.90;;;;;;4918643;29;20124;-91
2022/04/03 10:45:46;;;;;;;2.72;1.65;;;10.40;99.90;;;;;;4917522;29;20071;-91
2022/04/03 10:48:21;;;;;;;1.90;1.45;;;10.30;99.90;;;;;;4911983;29;20031;-90
2022/04/03 10:51:02;;;;;;;2.65;1.80;;;10.20;99.90;;;;;;4903125;29;20103;-90
2022/04/03 10:53:33;;;;;;;5.40;1.80;;;10.10;99.90;;;;;;4914358;29;20024;-91
2022/04/03 10:56:07;;;;;;;2.30;1.70;;;10.00;99.90;;;;;;4899551;29;20037;-91
2022/04/03 10:58:47;;;;;;;2.65;2.10;;;10.00;99.90;;;;;;4901471;29;20374;-91
2022/04/03 11:01:33;;;;;;;3.50;1.80;;;10.00;99.90;;;;;;4913838;29;20111;-91
2022/04/03 11:04:07;;;;;;;2.33;1.90;;;10.20;99.90;;;;;;4915005;29;20527;-91
2022/04/03 11:06:35;;;;;;;1.67;1.58;;;10.10;99.90;;;;;;4896450;29;20028;-91
2022/04/03 11:09:05;;;;;;;3.17;1.90;;;9.70;99.90;;;;;;4896848;29;20541;-90
2022/04/03 11:11:37;;;;;;;2.30;1.90;;;9.40;99.90;;;;;;4913254;29;20066;-90
2022/04/03 11:14:09;;;;;;;2.67;2.00;;;9.10;99.90;;;;;;4891780;29;20084;-91
2022/04/03 11:16:55;;;;;;;2.17;1.77;;;9.20;99.90;;;;;;4912909;29;20020;-91
2022/04/03 11:19:42;;;;;;;2.15;1.90;;;9.40;99.90;;;;;;4909671;29;20028;-91
2022/04/03 11:22:12;;;;;;;1.65;1.55;;;9.50;99.90;;;;;;4915201;29;20107;-91
2022/04/03 11:24:38;;;;;;;1.80;1.70;;;9.50;99.90;;;;;;4915378;29;20028;-91
2022/04/03 11:27:06;;;;;;;2.08;1.88;;;9.70;99.90;;;;;;4915104;29;20032;-91
2022/04/03 11:29:31;;;;;;;6.60;4.22;;;9.90;99.90;;;;;;4908903;29;20029;-91
2022/04/03 11:31:57;;;;;;;3.40;2.58;;;10.10;99.90;;;;;;4912257;29;20388;-91
2022/04/03 11:34:30;;;;;;;2.95;1.63;;;10.30;99.90;;;;;;4913729;29;20020;-91
2022/04/03 11:36:58;;;;;;;2.92;1.38;;;10.50;99.90;;;;;;4916979;29;20032;-91
2022/04/03 11:39:31;;;;;;;2.70;1.67;;;10.60;99.90;;;;;;4929570;29;20391;-90
2022/04/03 11:41:58;;;;;;;1.95;1.60;;;10.50;99.90;;;;;;4918957;29;20462;-91
2022/04/03 11:44:24;;;;;;;2.85;1.80;;;10.40;99.90;;;;;;4903011;29;20029;-91
2022/04/03 11:46:50;;;;;;;2.22;1.65;;;10.30;99.90;;;;;;4911082;29;20032;-91
2022/04/03 11:49:30;;;;;;;1.95;1.80;;;10.30;99.90;;;;;;4919231;29;20028;-91
2022/04/03 11:52:05;;;;;;;3.40;1.88;;;10.30;99.90;;;;;;4918537;29;20048;-90
2022/04/03 11:54:32;;;;;;;2.35;1.70;;;10.40;99.90;;;;;;4910650;29;20394;-91
2022/04/03 11:57:03;;;;;;;1.88;1.52;;;10.50;99.90;;;;;;4915541;29;20115;-90
2022/04/03 11:59:36;;;;;;;2.42;1.60;;;10.60;99.90;;;;;;4907283;29;20032;-91
2022/04/03 12:02:13;;;;;;;2.83;1.73;;;10.60;99.90;;;;;;4902164;29;20544;-91
2022/04/03 12:04:40;;;;;;;2.25;1.60;;;10.60;99.90;;;;;;4910231;29;21205;-91
2022/04/03 12:07:10;;;;;;;2.40;1.70;;;10.60;99.90;;;;;;4907506;29;20032;-91
2022/04/03 12:09:37;;;;;;;2.00;1.75;;;10.60;99.90;;;;;;4918780;29;20134;-90
2022/04/03 12:12:04;;;;;;;2.17;1.70;;;10.40;99.90;;;;;;4925863;29;20079;-90
2022/04/03 12:14:31;;;;;;;3.25;1.63;;;10.20;99.90;;;;;;4914678;29;20040;-90
2022/04/03 12:17:01;;;;;;;3.72;2.05;;;9.90;99.90;;;;;;4911062;29;20032;-91
2022/04/03 12:19:28;;;;;;;1.80;1.70;;;9.70;99.90;;;;;;4907503;29;20028;-90
2022/04/03 12:21:56;;;;;;;1.95;1.85;;;9.70;99.90;;;;;;4908579;29;20079;-90
2022/04/03 12:24:27;;;;;;;2.38;1.90;;;9.70;99.90;;;;;;4909109;29;20028;-91
2022/04/03 12:26:59;;;;;;;2.35;1.70;;;9.80;99.90;;;;;;4913145;29;20048;-91
2022/04/03 12:29:27;;;;;;;4.15;1.77;;;9.70;99.90;;;;;;4905194;29;20043;-90
2022/04/03 12:32:02;;;;;;;2.13;1.92;;;9.60;99.90;;;;;;4912927;29;20123;-91
2022/04/03 12:34:30;;;;;;;1.80;1.67;;;9.60;99.90;;;;;;4912213;29;20025;-90
2022/04/03 12:36:58;;;;;;;2.60;1.80;;;9.70;99.90;;;;;;4907913;29;20036;-89
2022/04/03 12:39:48;;;;;;;4.40;1.92;;;9.90;99.90;;;;;;4917586;29;20039;-92
2022/04/03 12:42:15;;;;;;;2.22;1.77;;;10.20;99.90;;;;;;4910988;29;20020;-91
2022/04/03 12:44:45;;;;;;;3.30;1.77;;;10.50;99.90;;;;;;4924075;29;20039;-92
2022/04/03 12:47:16;;;;;;;2.47;1.80;;;10.50;99.90;;;;;;4906897;29;20028;-91
2022/04/03 12:49:45;;;;;;;3.22;1.90;;;10.20;99.90;;;;;;4911301;29;20044;-92
2022/04/03 12:52:17;;;;;;;2.70;1.90;;;9.80;99.90;;;;;;4921441;29;20563;-91
2022/04/03 12:54:45;;;;;;;3.17;2.03;;;9.40;99.90;;;;;;4934321;29;20025;-92
2022/04/03 13:00:52;;;;;;;2.20;1.83;;;8.70;99.90;;;;;;4909580;29;20047;-91
2022/04/03 13:03:33;;;;;;;1.67;1.55;;;8.30;99.90;;;;;;4913244;29;20443;-92
2022/04/03 13:09:22;;;;;;;;;;;;;;;;;;;;;
2022/04/03 13:22:52;;;;;;;;;;;;;;;;;;;;;
2022/04/03 13:38:42;;;;;;;3.25;1.70;;;10.20;99.90;;;;;;4923042;29;20076;-88
2022/04/03 13:41:08;;;;;;;2.25;1.67;;;10.70;99.90;;;;;;4919683;29;20028;-89
2022/04/03 13:43:33;;;;;;;2.65;1.65;;;10.90;99.90;;;;;;4916937;29;20080;-87
2022/04/03 13:46:00;;;;;;;1.40;1.30;;;10.90;99.90;;;;;;4926376;29;20025;-89
2022/04/03 13:48:37;;;;;;;1.60;1.50;;;10.60;99.90;;;;;;4908730;29;20056;-88
2022/04/03 13:51:05;;;;;;;2.08;1.77;;;10.10;99.90;;;;;;4911745;29;20025;-87
2022/04/03 13:53:30;;;;;;;17.42;9.25;;;9.60;99.90;;;;;;4911397;29;20097;-87
2022/04/03 13:55:56;;;;;;;2.38;1.90;;;9.20;99.90;;;;;;4910000;29;20036;-87
2022/04/03 13:58:24;;;;;;;3.10;1.90;;;8.70;99.90;;;;;;4906443;29;20039;-87
2022/04/03 14:00:49;;;;;;;2.97;1.60;;;8.30;99.90;;;;;;4910929;29;20091;-88
2022/04/03 14:03:15;;;;;;;1.83;1.73;;;8.10;99.90;;;;;;4924780;29;20096;-87
2022/04/03 14:05:41;;;;;;;2.13;1.83;;;7.90;99.90;;;;;;4919338;29;20418;-87
2022/04/03 14:08:07;;;;;;;2.67;1.70;;;7.90;99.90;;;;;;4912081;29;20037;-87
2022/04/03 14:10:33;;;;;;;1.80;1.50;;;7.70;99.90;;;;;;4909189;29;20399;-86
2022/04/03 14:13:00;;;;;;;1.73;1.50;;;7.50;99.90;;;;;;4908469;29;20036;-88
2022/04/03 14:15:27;;;;;;;1.83;1.48;;;7.20;99.90;;;;;;4908810;29;20025;-87
2022/04/03 14:17:53;;;;;;;2.13;1.70;;;7.00;99.90;;;;;;4911073;29;20084;-86
2022/04/03 14:20:18;;;;;;;3.92;1.80;;;6.90;99.90;;;;;;4918069;29;20029;-86
2022/04/03 14:22:44;;;;;;;2.38;1.83;;;6.80;99.90;;;;;;4917188;29;20047;-87
2022/04/03 14:25:13;;;;;;;3.33;1.88;;;6.70;99.90;;;;;;4917559;29;20044;-85
2022/04/03 14:27:39;;;;;;;1.85;1.70;;;6.70;99.90;;;;;;4913728;29;20056;-86
2022/04/03 14:30:07;;;;;;;2.08;1.88;;;6.70;99.90;;;;;;4916540;29;20084;-85
2022/04/03 14:32:34;;;;;;;2.72;1.80;;;6.70;99.90;;;;;;4913070;29;20212;-87
2022/04/03 14:35:01;;;;;;;1.80;1.65;;;6.60;99.90;;;;;;4914355;29;20033;-87
2022/04/03 14:37:27;;;;;;;1.58;1.48;;;6.50;99.90;;;;;;4921241;29;20035;-86
2022/04/03 14:39:53;;;;;;;3.08;1.65;;;6.40;99.90;;;;;;4931343;29;20024;-86
2022/04/03 14:42:19;;;;;;;1.60;1.50;;;6.20;99.90;;;;;;4934057;29;20115;-88
2022/04/03 14:44:45;;;;;;;1.48;1.38;;;6.10;99.90;;;;;;4911281;29;20040;-87
2022/04/03 14:47:10;;;;;;;2.10;1.60;;;5.90;99.90;;;;;;4908085;29;20048;-87
2022/04/03 14:49:36;;;;;;;2.53;1.83;;;5.80;99.90;;;;;;4910981;29;20175;-86
2022/04/03 14:52:02;;;;;;;2.15;1.95;;;5.70;99.90;;;;;;4914469;29;20088;-87
2022/04/03 14:54:31;;;;;;;2.17;1.83;;;5.60;99.90;;;;;;4916976;29;20028;-85
2022/04/03 14:56:58;;;;;;;2.00;1.70;;;5.60;99.90;;;;;;4911584;29;20036;-87
2022/04/03 14:59:24;;;;;;;2.10;1.80;;;5.50;99.90;;;;;;4912125;29;20110;-87
2022/04/03 15:01:51;;;;;;;1.70;1.60;;;5.60;99.90;;;;;;4910095;29;20045;-86
2022/04/03 15:04:17;;;;;;;4.13;2.05;;;5.70;99.90;;;;;;4911218;29;20052;-87
2022/04/03 15:10:24;;;;;;;2.30;2.10;;;5.80;99.90;;;;;;4845414;29;20034;-88
2022/04/03 15:12:51;;;;;;;2.33;1.67;;;5.80;99.90;;;;;;4905312;29;20044;-86
2022/04/03 15:15:16;;;;;;;2.70;1.70;;;5.80;99.90;;;;;;4907702;29;20102;-87
2022/04/03 15:17:42;;;;;;;2.38;2.17;;;5.70;99.90;;;;;;4909859;29;20024;-87
2022/04/03 15:20:08;;;;;;;2.30;1.98;;;5.80;99.90;;;;;;4907941;29;20033;-87
2022/04/03 15:22:35;;;;;;;2.25;1.77;;;5.70;99.90;;;;;;4909765;29;20056;-86
2022/04/03 15:25:08;;;;;;;3.28;1.67;;;5.60;99.90;;;;;;4912120;29;20020;-87
2022/04/03 15:27:34;;;;;;;1.80;1.70;;;5.60;99.90;;;;;;4891032;29;20134;-86
2022/04/03 15:30:14;;;;;;;3.40;1.60;;;5.50;99.90;;;;;;4898338;29;20049;-86
2022/04/03 15:44:15;;;;;;;;;;;;;;;;;;;;;
2022/04/03 15:49:18;;;;;;;1.88;1.77;;;5.30;99.90;;;;;;1906054;23;20382;-84
2022/04/03 15:51:48;;;;;;;1.88;1.70;;;5.20;99.90;;;;;;4966116;29;20043;-86
2022/04/03 15:54:27;;;;;;;2.55;1.80;;;5.20;99.90;;;;;;4971912;29;20031;-84
2022/04/03 16:25:32;;;;;;;4.05;1.80;;;5.70;99.90;;;;;;4921557;29;20048;-85
2022/04/03 16:28:14;;;;;;;;;;;;;;;;;;;;;
2022/04/03 16:33:57;;;;;;;2.50;2.13;;;5.40;99.90;;;;;;4920564;29;20024;-86
2022/04/03 16:36:26;;;;;;;2.88;2.13;;;5.40;99.90;;;;;;4919086;29;20131;-85
2022/04/03 16:39:01;;;;;;;4.93;3.58;;;5.40;99.90;;;;;;4915481;29;20522;-86
2022/04/03 16:42:34;;;;;;;2.28;2.00;;;5.30;99.90;;;;;;4916190;29;20040;-86
2022/04/03 16:46:13;;;;;;;4.50;2.63;;;5.30;99.90;;;;;;4902001;29;20038;-86
2022/04/03 16:48:49;;;;;;;2.03;1.83;;;5.30;99.90;;;;;;4919154;29;20039;-86
2022/04/03 16:52:05;;;;;;;2.40;1.88;;;5.20;99.90;;;;;;4910984;29;20116;-86
2022/04/03 17:03:10;;;;;;;;;;;;;;;;;;;;;
2022/04/03 17:15:31;;;;;;;3.92;2.40;;;4.90;99.90;;;;;;4849090;29;20043;-85
2022/04/03 17:18:24;;;;;;;4.97;2.33;;;4.80;99.90;;;;;;4878210;29;20487;-85
2022/04/03 17:20:50;;;;;;;4.30;2.75;;;4.70;99.90;;;;;;4897051;29;20044;-85
2022/04/03 17:23:15;;;;;;;8.63;5.95;;;4.70;99.90;;;;;;4884339;29;20032;-85
2022/04/03 17:25:46;;;;;;;6.18;4.18;;;4.70;99.90;;;;;;4883985;29;20133;-87
2022/04/03 17:31:06;;;;;;;4.40;3.22;;;4.60;99.90;;;;;;4930650;28;20078;-85
2022/04/03 17:33:31;;;;;;;13.98;6.32;;;4.40;99.90;;;;;;4911296;29;20115;-86
2022/04/03 17:36:35;;;;;;;7.57;4.35;;;4.20;99.90;;;;;;4902214;29;20051;-86
2022/04/03 17:43:16;;;;;;;5.65;3.75;;;4.10;99.90;;;;;;4908719;29;20031;-87
2022/04/03 17:45:42;;;;;;;5.93;3.55;;;3.90;99.90;;;;;;4902756;29;20043;-85
2022/04/03 17:48:08;;;;;;;7.78;3.80;;;3.90;99.90;;;;;;4915770;29;20044;-85
2022/04/03 17:50:35;;;;;;;4.35;3.15;;;3.90;99.90;;;;;;4914281;29;20028;-85
2022/04/03 17:53:01;;;;;;;4.63;3.38;;;3.70;99.90;;;;;;4907709;29;20033;-84
2022/04/03 17:55:30;;;;;;;5.50;3.33;;;3.60;99.90;;;;;;4914475;29;20079;-85
2022/04/03 17:57:57;;;;;;;3.83;2.92;;;3.70;99.90;;;;;;4915575;29;20087;-85
2022/04/03 18:00:25;;;;;;;4.63;2.80;;;3.60;99.90;;;;;;4917086;29;20024;-86
2022/04/03 18:02:54;;;;;;;8.43;5.35;;;3.50;99.90;;;;;;4909201;29;20032;-85